Time;durP1;ratioP1;P1;durP2;ratioP2;P2;SDS_P1;SDS_P2;PMS_P1;PMS_P2;Temp;Humidity;BMP_temperature;BMP_pressure;BME280_temperature;BME280_humidity;BME280_pressure;Samples;Min_cycle;Max_cycle;Signal;HPM_P1;HPM_P2
2022/10/18 00:01:08;;;;;;;13.23;8.45;;;19.00;99.90;;;;;;5071340;28;20033;-71
2022/10/18 00:03:34;;;;;;;10.27;8.45;;;19.00;99.90;;;;;;5082642;28;20414;-71
2022/10/18 00:06:00;;;;;;;11.55;8.77;;;19.00;99.90;;;;;;5078989;28;20130;-72
2022/10/18 00:08:27;;;;;;;11.27;8.65;;;19.00;99.90;;;;;;5094861;28;20048;-71
2022/10/18 00:10:53;;;;;;;14.60;9.13;;;19.00;99.90;;;;;;5085024;28;20112;-72
2022/10/18 00:13:19;;;;;;;13.02;8.85;;;19.00;99.90;;;;;;5082298;28;20032;-72
2022/10/18 00:16:08;;;;;;;11.13;8.45;;;19.00;99.90;;;;;;5073461;28;20031;-72
2022/10/18 00:18:34;;;;;;;10.27;8.23;;;19.00;99.90;;;;;;5077096;28;20037;-72
2022/10/18 00:21:03;;;;;;;10.05;7.82;;;19.00;99.90;;;;;;5073863;28;20074;-73
2022/10/18 00:23:30;;;;;;;10.98;8.43;;;19.00;99.90;;;;;;5078823;28;20056;-72
2022/10/18 00:26:04;;;;;;;12.27;8.30;;;19.00;99.90;;;;;;5091635;28;20047;-72
2022/10/18 00:28:32;;;;;;;8.90;6.78;;;19.00;99.90;;;;;;5080586;28;20078;-71
2022/10/18 00:31:16;;;;;;;9.93;7.90;;;19.00;99.90;;;;;;5076030;28;20095;-72
2022/10/18 00:33:44;;;;;;;11.32;8.40;;;19.00;99.90;;;;;;5081123;28;20102;-73
2022/10/18 00:36:11;;;;;;;9.40;7.70;;;19.00;99.90;;;;;;5080810;28;20122;-71
2022/10/18 00:38:37;;;;;;;11.88;7.82;;;19.00;99.90;;;;;;5081050;28;20372;-73
2022/10/18 00:41:06;;;;;;;12.15;7.97;;;19.00;99.90;;;;;;5080743;28;20028;-73
2022/10/18 00:43:32;;;;;;;11.23;8.15;;;19.00;99.90;;;;;;5080564;28;20106;-74
2022/10/18 00:46:00;;;;;;;11.52;8.38;;;19.00;99.90;;;;;;5071647;28;20079;-73
2022/10/18 00:48:26;;;;;;;10.20;8.00;;;19.00;99.90;;;;;;5076397;28;20037;-73
2022/10/18 00:50:52;;;;;;;10.38;8.20;;;19.10;99.90;;;;;;5082375;28;20024;-73
2022/10/18 00:53:21;;;;;;;11.35;7.45;;;19.00;99.90;;;;;;5085714;28;20111;-73
2022/10/18 00:55:47;;;;;;;9.98;7.60;;;19.00;99.90;;;;;;5081442;28;20039;-72
2022/10/18 00:58:16;;;;;;;11.18;8.38;;;19.00;99.90;;;;;;5079880;28;20063;-72
2022/10/18 01:00:41;;;;;;;12.98;8.38;;;19.00;99.90;;;;;;5090613;28;20039;-72
2022/10/18 01:03:08;;;;;;;10.25;7.45;;;19.00;99.90;;;;;;5083923;28;20584;-72
2022/10/18 01:05:40;;;;;;;10.98;7.90;;;19.00;99.90;;;;;;5083107;28;20545;-72
2022/10/18 01:08:24;;;;;;;11.07;7.18;;;19.00;99.90;;;;;;5081132;28;20030;-73
2022/10/18 01:11:06;;;;;;;;;;;19.00;99.90;;;;;;5066528;28;20031;-72
2022/10/18 01:13:52;;;;;;;10.93;8.38;;;19.00;99.90;;;;;;5062607;28;20739;-73
2022/10/18 01:16:31;;;;;;;13.18;8.68;;;18.90;99.90;;;;;;5055954;28;20025;-72
2022/10/18 01:19:35;;;;;;;10.50;7.72;;;19.00;99.90;;;;;;5069615;28;20437;-72
2022/10/18 01:22:33;;;;;;;9.83;7.83;;;18.90;99.90;;;;;;5074977;28;20047;-71
2022/10/18 01:25:13;;;;;;;10.00;7.78;;;19.00;99.90;;;;;;5076872;28;20385;-72
2022/10/18 01:27:54;;;;;;;11.73;8.30;;;19.00;99.90;;;;;;5084008;28;20036;-71
2022/10/18 01:30:40;;;;;;;9.90;8.25;;;19.00;99.90;;;;;;5077770;28;20059;-71
2022/10/18 01:33:17;;;;;;;10.93;8.68;;;19.00;99.90;;;;;;5071102;28;20048;-72
2022/10/18 01:35:49;;;;;;;12.05;9.20;;;19.00;99.90;;;;;;5075250;28;20039;-72
2022/10/18 01:38:18;;;;;;;10.90;8.10;;;19.00;99.90;;;;;;5074033;28;20024;-73
2022/10/18 01:40:47;;;;;;;9.00;8.07;;;19.00;99.90;;;;;;5081187;28;20439;-72
2022/10/18 01:43:16;;;;;;;10.02;8.27;;;19.00;99.90;;;;;;5079641;28;20034;-73
2022/10/18 01:45:41;;;;;;;17.15;8.93;;;19.00;99.90;;;;;;5079350;28;20031;-73
2022/10/18 01:48:09;;;;;;;10.05;8.50;;;19.00;99.90;;;;;;5087126;28;20028;-74
2022/10/18 01:50:35;;;;;;;13.63;9.35;;;19.00;99.90;;;;;;5069894;28;20032;-73
2022/10/18 01:53:02;;;;;;;11.55;8.15;;;19.10;99.90;;;;;;5075450;28;20569;-72
2022/10/18 01:55:40;;;;;;;10.35;8.70;;;19.10;99.90;;;;;;5079048;28;20028;-73
2022/10/18 01:58:26;;;;;;;11.40;8.95;;;19.10;99.90;;;;;;5068994;28;20029;-73
2022/10/18 02:01:02;;;;;;;14.50;8.93;;;19.10;99.90;;;;;;5076742;28;20177;-73
2022/10/18 02:03:28;;;;;;;12.18;8.07;;;19.00;99.90;;;;;;5072303;28;20082;-72
2022/10/18 02:06:04;;;;;;;10.30;8.25;;;19.00;99.90;;;;;;5076133;28;20027;-73
2022/10/18 02:08:37;;;;;;;9.15;8.20;;;19.10;99.90;;;;;;5065339;28;20039;-71
2022/10/18 02:11:05;;;;;;;9.30;7.85;;;19.10;99.90;;;;;;5073448;28;20032;-72
2022/10/18 02:13:44;;;;;;;9.98;8.48;;;19.10;99.90;;;;;;5078955;28;20028;-72
2022/10/18 02:16:17;;;;;;;12.20;8.55;;;19.10;99.90;;;;;;5088513;28;20111;-71
2022/10/18 02:19:11;;;;;;;10.00;8.50;;;19.10;99.90;;;;;;5074402;28;20047;-71
2022/10/18 02:21:39;;;;;;;15.50;9.45;;;19.10;99.90;;;;;;5058383;28;20029;-71
2022/10/18 02:24:06;;;;;;;14.88;9.52;;;19.10;99.90;;;;;;5079247;28;20039;-71
2022/10/18 02:26:33;;;;;;;10.63;8.65;;;19.10;99.90;;;;;;5081784;28;20028;-71
2022/10/18 02:28:59;;;;;;;13.13;9.32;;;19.10;99.90;;;;;;5080655;28;20436;-72
2022/10/18 02:31:34;;;;;;;13.60;9.35;;;19.10;99.90;;;;;;5088637;28;20063;-71
2022/10/18 02:34:24;;;;;;;14.25;8.85;;;19.10;99.90;;;;;;5087375;28;20052;-71
2022/10/18 02:36:58;;;;;;;10.07;8.02;;;19.10;99.90;;;;;;5091321;28;20387;-71
2022/10/18 02:39:27;;;;;;;11.95;8.52;;;19.20;99.90;;;;;;5067400;28;20119;-71
2022/10/18 02:41:54;;;;;;;13.68;8.50;;;19.20;99.90;;;;;;5084333;28;20028;-71
2022/10/18 02:44:19;;;;;;;10.20;9.13;;;19.20;99.90;;;;;;5073526;28;20028;-70
2022/10/18 02:46:46;;;;;;;11.98;8.35;;;19.10;99.90;;;;;;5070834;28;20463;-71
2022/10/18 02:49:11;;;;;;;11.85;8.18;;;19.10;99.90;;;;;;5067129;28;20029;-70
2022/10/18 02:51:38;;;;;;;10.13;9.05;;;19.10;99.90;;;;;;5089945;28;20024;-71
2022/10/18 02:54:04;;;;;;;10.02;8.25;;;19.10;99.90;;;;;;5075282;28;20063;-71
2022/10/18 02:56:30;;;;;;;10.18;8.90;;;19.10;99.90;;;;;;5071350;28;20056;-71
2022/10/18 02:58:56;;;;;;;8.93;8.02;;;19.10;99.90;;;;;;5075540;28;20066;-71
2022/10/18 03:01:21;;;;;;;9.63;8.27;;;19.10;99.90;;;;;;5086497;28;20066;-72
2022/10/18 03:03:47;;;;;;;9.43;8.25;;;19.10;99.90;;;;;;5072206;28;20383;-72
2022/10/18 03:06:12;;;;;;;10.93;8.27;;;19.00;99.90;;;;;;5085865;28;20060;-72
2022/10/18 03:08:38;;;;;;;9.43;7.97;;;19.00;99.90;;;;;;5075346;28;20429;-72
2022/10/18 03:11:04;;;;;;;10.02;7.32;;;19.00;99.90;;;;;;5083600;28;20024;-72
2022/10/18 03:13:30;;;;;;;10.73;9.18;;;19.00;99.90;;;;;;5076635;28;20613;-71
2022/10/18 03:15:55;;;;;;;19.00;9.40;;;19.00;99.90;;;;;;5081558;28;20123;-72
2022/10/18 03:18:21;;;;;;;11.20;8.55;;;19.00;99.90;;;;;;5083599;28;20043;-72
2022/10/18 03:20:46;;;;;;;8.07;7.25;;;19.00;99.90;;;;;;5091160;28;20027;-72
2022/10/18 03:23:12;;;;;;;10.55;8.00;;;18.90;99.90;;;;;;5082211;28;20037;-72
2022/10/18 03:25:38;;;;;;;10.25;7.43;;;18.90;99.90;;;;;;5085396;28;20023;-71
2022/10/18 03:28:04;;;;;;;9.90;8.07;;;19.00;99.90;;;;;;5080713;28;20056;-72
2022/10/18 03:30:29;;;;;;;9.93;7.60;;;18.90;99.90;;;;;;5070722;28;20352;-72
2022/10/18 03:32:55;;;;;;;11.57;8.63;;;18.90;99.90;;;;;;5075562;28;20044;-72
2022/10/18 03:35:21;;;;;;;10.68;8.43;;;19.00;99.90;;;;;;5087799;28;20035;-72
2022/10/18 03:37:48;;;;;;;10.27;7.72;;;18.90;99.90;;;;;;5083047;28;20057;-72
2022/10/18 03:40:13;;;;;;;12.13;8.55;;;18.80;99.90;;;;;;5073745;28;20503;-72
2022/10/18 03:42:39;;;;;;;9.95;7.43;;;18.80;99.90;;;;;;5074230;28;20028;-71
2022/10/18 03:45:06;;;;;;;9.75;7.85;;;18.80;99.90;;;;;;5075435;28;20032;-71
2022/10/18 03:47:32;;;;;;;9.70;8.32;;;18.80;99.90;;;;;;5074834;28;20016;-72
2022/10/18 03:49:58;;;;;;;12.20;8.45;;;18.70;99.90;;;;;;5082998;28;20483;-72
2022/10/18 03:52:24;;;;;;;12.77;9.18;;;18.80;99.90;;;;;;5072492;28;20039;-73
2022/10/18 03:54:52;;;;;;;9.20;8.20;;;18.70;99.90;;;;;;5083066;28;20035;-72
2022/10/18 03:57:20;;;;;;;9.38;7.97;;;18.70;99.90;;;;;;5075923;28;20040;-71
2022/10/18 03:59:47;;;;;;;10.98;8.93;;;18.70;99.90;;;;;;5080439;28;20044;-71
2022/10/18 04:02:13;;;;;;;11.80;8.18;;;18.70;99.90;;;;;;5081673;28;20028;-72
2022/10/18 04:04:38;;;;;;;13.68;9.23;;;18.70;99.90;;;;;;5084233;28;20062;-71
2022/10/18 04:07:04;;;;;;;9.50;7.95;;;18.60;99.90;;;;;;5076670;28;20028;-70
2022/10/18 04:09:30;;;;;;;11.82;8.35;;;18.60;99.90;;;;;;5068849;28;20085;-71
2022/10/18 04:11:56;;;;;;;12.57;8.13;;;18.60;99.90;;;;;;5078918;28;20024;-71
2022/10/18 04:14:21;;;;;;;9.10;8.15;;;18.60;99.90;;;;;;5062922;28;20322;-71
2022/10/18 04:16:47;;;;;;;11.02;8.20;;;18.50;99.90;;;;;;5077225;28;20471;-71
2022/10/18 04:19:12;;;;;;;9.23;8.27;;;18.50;99.90;;;;;;5080743;28;20422;-73
2022/10/18 04:21:38;;;;;;;10.82;8.55;;;18.60;99.90;;;;;;5084761;28;20020;-72
2022/10/18 04:24:05;;;;;;;10.02;8.05;;;18.60;99.90;;;;;;5086072;28;20494;-72
2022/10/18 04:26:31;;;;;;;11.40;7.75;;;18.60;99.90;;;;;;5090945;28;20028;-72
2022/10/18 04:28:56;;;;;;;11.88;8.05;;;18.50;99.90;;;;;;5074470;28;20024;-71
2022/10/18 04:31:22;;;;;;;8.38;7.32;;;18.50;99.90;;;;;;5084122;28;20023;-71
2022/10/18 04:33:48;;;;;;;9.98;7.65;;;18.50;99.90;;;;;;5073571;28;20044;-71
2022/10/18 04:36:13;;;;;;;11.55;8.48;;;18.50;99.90;;;;;;5090448;28;20488;-71
2022/10/18 04:38:39;;;;;;;8.70;7.22;;;18.50;99.90;;;;;;5088462;28;20039;-71
2022/10/18 04:41:05;;;;;;;9.35;7.40;;;18.50;99.90;;;;;;5073604;28;20033;-72
2022/10/18 04:43:31;;;;;;;9.77;7.70;;;18.50;99.90;;;;;;5079328;28;20078;-72
2022/10/18 04:45:56;;;;;;;9.13;6.75;;;18.40;99.90;;;;;;5086225;28;20097;-71
2022/10/18 04:48:22;;;;;;;8.75;6.70;;;18.40;99.90;;;;;;5087010;28;20024;-71
2022/10/18 04:50:50;;;;;;;10.23;7.30;;;18.40;99.90;;;;;;5067215;28;20130;-71
2022/10/18 04:53:16;;;;;;;7.70;6.38;;;18.30;99.90;;;;;;5082885;28;20411;-72
2022/10/18 04:55:47;;;;;;;8.77;6.30;;;18.30;99.90;;;;;;5078193;28;20028;-72
2022/10/18 04:58:14;;;;;;;7.40;6.05;;;18.30;99.90;;;;;;5082914;28;20035;-71
2022/10/18 05:00:42;;;;;;;10.48;6.63;;;18.30;99.90;;;;;;5090684;28;20032;-72
2022/10/18 05:03:08;;;;;;;7.60;6.57;;;18.30;99.90;;;;;;5082282;28;20082;-73
2022/10/18 05:05:35;;;;;;;8.18;6.50;;;18.20;99.90;;;;;;5076305;28;20032;-66
2022/10/18 05:08:00;;;;;;;9.82;6.97;;;18.20;99.90;;;;;;5086304;28;20021;-69
2022/10/18 05:10:26;;;;;;;7.00;6.05;;;18.30;99.90;;;;;;5071973;28;20655;-69
2022/10/18 05:12:52;;;;;;;7.43;5.55;;;18.30;99.90;;;;;;5071725;28;20039;-69
2022/10/18 05:15:17;;;;;;;6.70;5.35;;;18.20;99.90;;;;;;5065093;28;20031;-68
2022/10/18 05:17:43;;;;;;;6.95;5.65;;;18.20;99.90;;;;;;5074145;28;20024;-69
2022/10/18 05:20:09;;;;;;;7.93;6.53;;;18.20;99.90;;;;;;5081742;28;20038;-68
2022/10/18 05:22:35;;;;;;;7.40;6.25;;;18.20;99.90;;;;;;5072108;28;20029;-68
2022/10/18 05:25:00;;;;;;;8.85;6.47;;;18.20;99.90;;;;;;5086524;28;20031;-68
2022/10/18 05:27:27;;;;;;;7.93;5.60;;;18.20;99.90;;;;;;5075996;28;20482;-69
2022/10/18 05:29:53;;;;;;;8.23;6.40;;;18.20;99.90;;;;;;5081181;28;20027;-68
2022/10/18 05:32:19;;;;;;;6.93;6.18;;;18.20;99.90;;;;;;5082918;28;20044;-68
2022/10/18 05:34:44;;;;;;;9.43;6.65;;;18.30;99.90;;;;;;5077053;28;20016;-68
2022/10/18 05:37:10;;;;;;;9.93;7.50;;;18.20;99.90;;;;;;5079403;28;20376;-69
2022/10/18 05:39:37;;;;;;;10.00;7.40;;;18.20;99.90;;;;;;5074914;28;20044;-68
2022/10/18 05:42:04;;;;;;;7.93;6.82;;;18.20;99.90;;;;;;5068562;28;20033;-69
2022/10/18 05:44:30;;;;;;;8.82;7.80;;;18.20;99.90;;;;;;5087151;28;20054;-69
2022/10/18 05:46:55;;;;;;;9.32;7.63;;;18.20;99.90;;;;;;5075167;28;20514;-69
2022/10/18 05:49:21;;;;;;;10.23;8.13;;;18.20;99.90;;;;;;5088254;28;20081;-69
2022/10/18 05:51:46;;;;;;;8.70;6.82;;;18.20;99.90;;;;;;5081535;28;20430;-69
2022/10/18 05:54:12;;;;;;;23.48;9.30;;;18.20;99.90;;;;;;5072309;28;20067;-68
2022/10/18 05:56:39;;;;;;;9.45;7.40;;;18.20;99.90;;;;;;5079185;28;20048;-68
2022/10/18 05:59:09;;;;;;;9.43;7.32;;;18.20;99.90;;;;;;5082810;28;20399;-69
2022/10/18 06:01:35;;;;;;;14.52;8.00;;;18.20;99.90;;;;;;5085214;28;20027;-68
2022/10/18 06:04:00;;;;;;;9.45;8.15;;;18.20;99.90;;;;;;5070198;28;20035;-69
2022/10/18 06:06:26;;;;;;;10.80;7.97;;;18.20;99.90;;;;;;5055373;28;20479;-69
2022/10/18 06:08:52;;;;;;;8.98;7.85;;;18.20;99.90;;;;;;5076124;28;20020;-69
2022/10/18 06:11:20;;;;;;;10.25;7.70;;;18.20;99.90;;;;;;5088297;28;20119;-69
2022/10/18 06:13:47;;;;;;;11.10;7.68;;;18.20;99.90;;;;;;5088487;28;20454;-69
2022/10/18 06:16:15;;;;;;;10.40;8.32;;;18.20;99.90;;;;;;5084428;28;20024;-68
2022/10/18 06:18:45;;;;;;;11.02;8.35;;;18.20;99.90;;;;;;5088965;28;20028;-69
2022/10/18 06:21:12;;;;;;;13.27;8.65;;;18.10;99.90;;;;;;5077152;28;20111;-69
2022/10/18 06:23:39;;;;;;;11.38;8.93;;;18.10;99.90;;;;;;5087644;28;20020;-69
2022/10/18 06:26:08;;;;;;;10.50;7.97;;;18.10;99.90;;;;;;5086956;28;20020;-68
2022/10/18 06:28:35;;;;;;;9.02;8.07;;;18.10;99.90;;;;;;5052103;28;20379;-69
2022/10/18 06:31:01;;;;;;;10.23;8.23;;;18.10;99.90;;;;;;5076647;28;20024;-69
2022/10/18 06:33:29;;;;;;;11.10;8.60;;;18.10;99.90;;;;;;5089434;28;20070;-69
2022/10/18 06:35:57;;;;;;;10.73;8.88;;;18.10;99.90;;;;;;5070288;28;20038;-68
2022/10/18 06:38:23;;;;;;;9.75;8.13;;;18.10;99.90;;;;;;5070842;28;20035;-68
2022/10/18 06:40:49;;;;;;;12.07;8.82;;;18.10;99.90;;;;;;5084723;28;20436;-68
2022/10/18 06:43:14;;;;;;;13.60;8.70;;;18.10;99.90;;;;;;5088529;28;20016;-67
2022/10/18 06:45:40;;;;;;;11.18;8.98;;;18.00;99.90;;;;;;5083796;28;20024;-69
2022/10/18 06:48:06;;;;;;;12.52;8.70;;;18.00;99.90;;;;;;5070754;28;20036;-70
2022/10/18 06:50:33;;;;;;;9.95;8.27;;;18.00;99.90;;;;;;5068797;28;20137;-70
2022/10/18 06:52:59;;;;;;;10.63;8.82;;;18.00;99.90;;;;;;5068625;28;20030;-69
2022/10/18 06:55:24;;;;;;;11.35;7.53;;;18.00;99.90;;;;;;5076272;28;20031;-69
2022/10/18 06:57:51;;;;;;;11.75;8.90;;;18.10;99.90;;;;;;5088435;28;20024;-69
2022/10/18 07:00:17;;;;;;;11.57;8.82;;;18.10;99.90;;;;;;5077829;28;20041;-69
2022/10/18 07:02:43;;;;;;;12.63;8.43;;;18.10;99.90;;;;;;5071058;28;20020;-69
2022/10/18 07:05:10;;;;;;;12.20;7.68;;;18.10;99.90;;;;;;5071923;28;20487;-69
2022/10/18 07:07:36;;;;;;;13.13;8.48;;;18.10;99.90;;;;;;5071108;28;20031;-68
2022/10/18 07:10:03;;;;;;;9.75;8.15;;;18.10;99.90;;;;;;5067020;28;20071;-65
2022/10/18 07:12:30;;;;;;;8.88;7.55;;;18.10;99.90;;;;;;5069654;28;20024;-64
2022/10/18 07:14:55;;;;;;;11.00;7.15;;;18.10;99.90;;;;;;5063832;28;20040;-64
2022/10/18 07:17:21;;;;;;;8.60;6.57;;;18.20;99.90;;;;;;5070124;28;20082;-66
2022/10/18 07:19:47;;;;;;;9.90;6.30;;;18.20;99.90;;;;;;5072423;28;20115;-66
2022/10/18 07:22:13;;;;;;;7.78;6.30;;;18.20;99.90;;;;;;5088573;28;20020;-65
2022/10/18 07:24:39;;;;;;;9.00;6.80;;;18.20;99.90;;;;;;5077871;28;20910;-65
2022/10/18 07:27:04;;;;;;;10.02;6.80;;;18.20;99.90;;;;;;5058287;28;20016;-66
2022/10/18 07:29:30;;;;;;;11.77;7.43;;;18.20;99.90;;;;;;5059714;28;20021;-65
2022/10/18 07:31:56;;;;;;;9.75;7.30;;;18.20;99.90;;;;;;5068168;28;20028;-65
2022/10/18 07:34:22;;;;;;;11.63;9.13;;;18.30;99.90;;;;;;5079358;28;20094;-66
2022/10/18 07:36:47;;;;;;;11.23;8.57;;;18.30;99.90;;;;;;5084195;28;20024;-66
2022/10/18 07:39:14;;;;;;;10.68;9.35;;;18.30;99.90;;;;;;5080379;28;20037;-65
2022/10/18 07:41:40;;;;;;;10.40;8.95;;;18.40;99.90;;;;;;5082048;28;20505;-65
2022/10/18 07:44:05;;;;;;;12.70;9.98;;;18.40;99.90;;;;;;5070634;28;20056;-65
2022/10/18 07:46:31;;;;;;;11.70;8.77;;;18.40;99.90;;;;;;5078152;28;20029;-66
2022/10/18 07:48:59;;;;;;;14.27;9.70;;;18.40;99.90;;;;;;5076273;28;20052;-65
2022/10/18 07:51:26;;;;;;;12.27;9.60;;;18.50;99.90;;;;;;5082795;28;20112;-65
2022/10/18 07:53:52;;;;;;;13.02;8.98;;;18.50;99.90;;;;;;5067089;28;20025;-63
2022/10/18 07:56:20;;;;;;;10.25;8.45;;;18.50;99.90;;;;;;5061872;28;20037;-65
2022/10/18 07:58:50;;;;;;;10.63;8.45;;;18.60;99.90;;;;;;5070634;28;20040;-66
2022/10/18 08:01:15;;;;;;;12.07;8.60;;;18.60;99.90;;;;;;5079726;28;20039;-64
2022/10/18 08:03:41;;;;;;;13.48;8.52;;;18.60;99.90;;;;;;5071156;28;20379;-65
2022/10/18 08:06:09;;;;;;;13.13;8.70;;;18.60;99.90;;;;;;5081812;28;20024;-66
2022/10/18 08:08:37;;;;;;;11.27;8.10;;;18.60;99.90;;;;;;5094405;28;20118;-65
2022/10/18 08:11:09;;;;;;;15.05;8.23;;;18.60;99.90;;;;;;5081695;28;20024;-64
2022/10/18 08:13:35;;;;;;;35.10;10.63;;;18.60;99.90;;;;;;5073715;28;20067;-65
2022/10/18 08:16:07;;;;;;;22.23;8.95;;;18.60;99.90;;;;;;5071703;28;20751;-65
2022/10/18 08:18:33;;;;;;;14.63;9.10;;;18.60;99.90;;;;;;5073307;28;20036;-65
2022/10/18 08:21:00;;;;;;;15.55;8.18;;;18.50;99.90;;;;;;5072658;28;20047;-65
2022/10/18 08:23:26;;;;;;;14.65;8.50;;;18.60;99.90;;;;;;5074041;28;20020;-65
2022/10/18 08:25:51;;;;;;;10.10;8.57;;;18.50;99.90;;;;;;5082163;28;20169;-64
2022/10/18 08:28:17;;;;;;;10.45;8.05;;;18.50;99.90;;;;;;5077356;28;20029;-64
2022/10/18 08:30:45;;;;;;;12.23;8.80;;;18.50;99.90;;;;;;5077480;28;20028;-64
2022/10/18 08:33:11;;;;;;;16.70;8.85;;;18.50;99.90;;;;;;5089525;28;20066;-65
2022/10/18 08:35:39;;;;;;;12.27;8.23;;;18.50;99.90;;;;;;5067976;28;20027;-65
2022/10/18 08:38:09;;;;;;;12.43;8.10;;;18.50;99.90;;;;;;5085634;28;20119;-65
2022/10/18 08:40:35;;;;;;;16.15;8.48;;;18.50;99.90;;;;;;5084568;28;20036;-64
2022/10/18 08:43:14;;;;;;;9.95;8.02;;;18.50;99.90;;;;;;5078826;28;20037;-66
2022/10/18 08:45:40;;;;;;;16.52;8.35;;;18.50;99.90;;;;;;5078290;28;20024;-64
2022/10/18 08:48:14;;;;;;;13.45;7.25;;;18.50;99.90;;;;;;5082849;28;20075;-64
2022/10/18 08:50:41;;;;;;;10.75;7.00;;;18.50;99.90;;;;;;5066753;28;20028;-64
2022/10/18 08:53:23;;;;;;;8.32;6.47;;;18.50;99.90;;;;;;5077653;28;20024;-64
2022/10/18 08:55:53;;;;;;;9.55;7.55;;;18.50;99.90;;;;;;5092210;28;20027;-63
2022/10/18 08:58:25;;;;;;;12.60;8.32;;;18.40;99.90;;;;;;5080498;28;20496;-64
2022/10/18 09:01:19;;;;;;;14.50;6.97;;;18.40;99.90;;;;;;5080245;28;20111;-64
2022/10/18 09:04:03;;;;;;;12.68;6.47;;;18.40;99.90;;;;;;5078817;28;20032;-64
2022/10/18 09:07:07;;;;;;;10.80;6.90;;;18.40;99.90;;;;;;5082754;28;20090;-65
2022/10/18 09:10:04;;;;;;;10.60;6.72;;;18.40;99.90;;;;;;5010645;28;20958;-66
2022/10/18 09:13:04;;;;;;;10.20;6.45;;;18.40;99.90;;;;;;5072790;28;20093;-64
2022/10/18 09:15:56;;;;;;;7.57;5.60;;;18.40;99.90;;;;;;5076757;28;20495;-63
2022/10/18 09:18:45;;;;;;;8.57;6.43;;;18.40;99.90;;;;;;5082901;28;20119;-63
2022/10/18 09:21:30;;;;;;;9.07;6.90;;;18.40;99.90;;;;;;5082147;28;20452;-65
2022/10/18 09:24:15;;;;;;;11.85;6.55;;;18.40;99.90;;;;;;5069428;28;20025;-63
2022/10/18 09:26:45;;;;;;;;;;;18.40;99.90;;;;;;5069356;28;20032;-63
2022/10/18 09:29:36;;;;;;;8.23;5.78;;;18.40;99.90;;;;;;5077103;28;19958;-64
2022/10/18 09:32:42;;;;;;;8.57;6.68;;;18.30;99.90;;;;;;5081518;28;20537;-65
2022/10/18 09:35:29;;;;;;;9.30;7.10;;;18.30;99.90;;;;;;5084451;28;20406;-66
2022/10/18 09:38:02;;;;;;;11.45;6.38;;;18.30;99.90;;;;;;5077744;28;20024;-66
2022/10/18 09:40:31;;;;;;;9.60;6.25;;;18.30;99.90;;;;;;5070901;28;20541;-66
2022/10/18 09:43:12;;;;;;;9.30;7.65;;;18.30;99.90;;;;;;5087034;28;20386;-66
2022/10/18 09:45:44;;;;;;;8.02;6.18;;;18.30;99.90;;;;;;5071864;28;20388;-66
2022/10/18 09:48:26;;;;;;;8.45;5.97;;;18.30;99.90;;;;;;5072051;28;20020;-65
2022/10/18 09:51:04;;;;;;;7.32;5.72;;;18.30;99.90;;;;;;5074639;28;20546;-66
2022/10/18 09:53:38;;;;;;;12.18;6.10;;;18.20;99.90;;;;;;5078831;28;20055;-66
2022/10/18 09:56:39;;;;;;;10.15;7.05;;;18.30;99.90;;;;;;5071815;28;20483;-66
2022/10/18 09:59:21;;;;;;;8.48;6.45;;;18.30;99.90;;;;;;5068075;28;20403;-66
2022/10/18 10:01:47;;;;;;;8.68;6.25;;;18.30;99.90;;;;;;5070883;28;20491;-66
2022/10/18 10:04:14;;;;;;;7.28;5.63;;;18.30;99.90;;;;;;5068397;28;20025;-66
2022/10/18 10:06:49;;;;;;;8.75;5.80;;;18.30;99.90;;;;;;5078679;28;20020;-66
2022/10/18 10:09:20;;;;;;;11.95;6.53;;;18.30;99.90;;;;;;5080584;28;20032;-66
2022/10/18 10:11:50;;;;;;;14.98;6.88;;;18.30;99.90;;;;;;5063624;28;20482;-66
2022/10/18 10:14:22;;;;;;;8.02;6.00;;;18.30;99.90;;;;;;5069278;28;20032;-66
2022/10/18 10:16:57;;;;;;;7.95;5.32;;;18.30;99.90;;;;;;5059933;28;20032;-66
2022/10/18 10:19:36;;;;;;;10.23;5.85;;;18.40;99.90;;;;;;5079741;28;20510;-65
2022/10/18 10:22:11;;;;;;;7.20;6.18;;;18.30;99.90;;;;;;5076711;28;20058;-66
2022/10/18 10:24:50;;;;;;;9.07;6.03;;;18.30;99.90;;;;;;5071225;28;20028;-66
2022/10/18 10:27:23;;;;;;;7.85;6.07;;;18.30;99.90;;;;;;5070046;28;20036;-66
2022/10/18 10:29:52;;;;;;;7.97;6.28;;;18.30;99.90;;;;;;5072870;28;20037;-66
2022/10/18 10:32:19;;;;;;;10.52;6.78;;;18.30;99.90;;;;;;5082829;28;20032;-67
2022/10/18 10:34:45;;;;;;;9.00;5.95;;;18.30;99.90;;;;;;5071793;28;20112;-66
2022/10/18 10:37:33;;;;;;;12.05;6.40;;;18.30;99.90;;;;;;5085052;28;20494;-66
2022/10/18 10:40:16;;;;;;;8.63;6.93;;;18.30;99.90;;;;;;5092130;28;20040;-67
2022/10/18 10:43:11;;;;;;;10.15;6.43;;;18.30;99.90;;;;;;5081996;28;20261;-67
2022/10/18 10:45:53;;;;;;;7.68;6.00;;;18.20;99.90;;;;;;5056741;28;20576;-67
2022/10/18 10:48:19;;;;;;;8.82;6.07;;;18.20;99.90;;;;;;5071431;28;20028;-67
2022/10/18 10:51:02;;;;;;;7.68;5.68;;;18.30;99.90;;;;;;5068412;28;20027;-67
2022/10/18 10:53:40;;;;;;;8.68;7.22;;;18.20;99.90;;;;;;5083453;28;20112;-67
2022/10/18 10:56:15;;;;;;;7.97;6.30;;;18.20;99.90;;;;;;5078382;28;20035;-67
2022/10/18 10:58:41;;;;;;;10.80;7.00;;;18.20;99.90;;;;;;5087054;28;20031;-66
2022/10/18 11:01:25;;;;;;;8.70;6.75;;;18.30;99.90;;;;;;5062746;28;20033;-67
2022/10/18 11:03:54;;;;;;;8.50;6.72;;;18.20;99.90;;;;;;5054209;28;20032;-67
2022/10/18 11:06:47;;;;;;;8.57;6.72;;;18.20;99.90;;;;;;5067882;28;20111;-67
2022/10/18 11:09:40;;;;;;;11.13;6.82;;;18.30;99.90;;;;;;5058724;28;20028;-67
2022/10/18 11:12:35;;;;;;;8.80;6.65;;;18.30;99.90;;;;;;5069647;28;20082;-65
2022/10/18 11:15:10;;;;;;;9.48;6.93;;;18.30;99.90;;;;;;5071090;28;20056;-68
2022/10/18 11:17:54;;;;;;;9.85;7.25;;;18.30;99.90;;;;;;5075992;28;20036;-65
2022/10/18 11:20:40;;;;;;;9.80;6.93;;;18.30;99.90;;;;;;5070269;28;20033;-66
2022/10/18 11:23:16;;;;;;;8.07;6.55;;;18.40;99.90;;;;;;5064234;28;20029;-67
2022/10/18 11:26:07;;;;;;;7.47;6.57;;;18.40;99.90;;;;;;5054703;28;20033;-66
2022/10/18 11:28:38;;;;;;;8.60;6.65;;;18.40;99.90;;;;;;5087005;28;20032;-66
2022/10/18 11:31:31;;;;;;;8.73;6.72;;;18.50;99.90;;;;;;5074169;28;20033;-66
2022/10/18 11:34:00;;;;;;;7.43;6.63;;;18.40;99.90;;;;;;5089151;28;20040;-65
2022/10/18 11:36:57;;;;;;;7.93;6.57;;;18.40;99.90;;;;;;5070639;28;20052;-67
2022/10/18 11:39:45;;;;;;;9.77;7.47;;;18.50;99.90;;;;;;5073829;28;20123;-67
2022/10/18 11:42:32;;;;;;;8.13;6.05;;;18.50;99.90;;;;;;5072959;28;20029;-68
2022/10/18 11:45:21;;;;;;;8.02;6.72;;;18.50;99.90;;;;;;5074663;28;20025;-66
2022/10/18 11:48:24;;;;;;;10.05;6.22;;;18.50;99.90;;;;;;5053642;28;20182;-66
2022/10/18 11:50:58;;;;;;;7.03;6.00;;;18.50;99.90;;;;;;5059859;28;20028;-66
2022/10/18 11:53:35;;;;;;;8.88;6.55;;;18.50;99.90;;;;;;5074568;28;20028;-66
2022/10/18 11:56:24;;;;;;;8.50;6.10;;;18.50;99.90;;;;;;5074350;28;20060;-67
2022/10/18 11:59:25;;;;;;;8.90;6.15;;;18.50;99.90;;;;;;5073746;28;20040;-66
2022/10/18 12:02:31;;;;;;;10.02;6.88;;;18.50;99.90;;;;;;5065709;28;20043;-67
2022/10/18 12:05:01;;;;;;;8.30;6.05;;;18.50;99.90;;;;;;5074729;28;20035;-67
2022/10/18 12:07:33;;;;;;;10.43;6.82;;;18.50;99.90;;;;;;5072796;28;20043;-67
2022/10/18 12:10:01;;;;;;;11.27;7.18;;;18.50;99.90;;;;;;5074651;28;20033;-67
2022/10/18 12:12:32;;;;;;;10.00;7.20;;;18.50;99.90;;;;;;5074425;28;20479;-68
2022/10/18 12:15:04;;;;;;;8.90;6.53;;;18.50;99.90;;;;;;5073341;28;20107;-68
2022/10/18 12:17:29;;;;;;;7.28;6.50;;;18.50;99.90;;;;;;5073684;28;20166;-68
2022/10/18 12:19:58;;;;;;;8.30;6.60;;;18.50;99.90;;;;;;5072846;28;20111;-68
2022/10/18 12:22:38;;;;;;;10.48;6.50;;;18.60;99.90;;;;;;5069157;28;20059;-68
2022/10/18 12:25:09;;;;;;;6.82;5.70;;;18.60;99.90;;;;;;5073204;28;20033;-68
2022/10/18 12:28:06;;;;;;;8.57;6.53;;;18.60;99.90;;;;;;5056354;28;20021;-68
2022/10/18 12:31:01;;;;;;;8.05;6.80;;;18.60;99.90;;;;;;5045844;28;20037;-67
2022/10/18 12:33:34;;;;;;;8.65;6.07;;;18.60;99.90;;;;;;5069791;28;20148;-67
2022/10/18 12:36:25;;;;;;;8.25;6.80;;;18.60;99.90;;;;;;5065262;28;20033;-67
2022/10/18 12:38:59;;;;;;;9.23;6.55;;;18.60;99.90;;;;;;5072148;28;20487;-68
2022/10/18 12:41:28;;;;;;;8.13;6.30;;;18.60;99.90;;;;;;5072935;28;20040;-67
2022/10/18 12:44:01;;;;;;;9.32;6.30;;;18.60;99.90;;;;;;5072351;28;20032;-66
2022/10/18 12:47:05;;;;;;;7.38;6.60;;;18.60;99.90;;;;;;5073229;28;20031;-66
2022/10/18 12:49:34;;;;;;;8.65;6.10;;;18.70;99.90;;;;;;4991699;28;20065;-67
2022/10/18 12:52:03;;;;;;;11.38;6.05;;;18.70;99.90;;;;;;5005340;28;20068;-66
2022/10/18 12:54:31;;;;;;;7.40;6.45;;;18.60;99.90;;;;;;5034096;28;20043;-66
2022/10/18 12:56:58;;;;;;;6.68;5.93;;;18.70;99.90;;;;;;5073185;28;20031;-67
2022/10/18 12:59:27;;;;;;;7.30;6.55;;;18.70;99.90;;;;;;5072943;28;20037;-67
2022/10/18 13:01:52;;;;;;;7.45;6.15;;;18.70;99.90;;;;;;5072664;28;20123;-67
2022/10/18 13:04:27;;;;;;;6.75;5.80;;;18.80;99.90;;;;;;5084047;28;20547;-66
2022/10/18 13:06:58;;;;;;;;;;;18.80;99.90;;;;;;5070488;28;20109;-66